sensor_id;sensor_type;location;lat;lon;timestamp;pressure;altitude;pressure_sealevel;temperature;humidity
50867;BME280;36839;51.946;21.002;2023-09-19T00:00:40;99544.11;;;16.07;100.00
50867;BME280;36839;51.946;21.002;2023-09-19T00:03:28;99542.77;;;16.07;100.00
50867;BME280;36839;51.946;21.002;2023-09-19T00:05:54;99543.42;;;16.06;100.00
50867;BME280;36839;51.946;21.002;2023-09-19T00:08:24;99540.18;;;16.05;100.00
50867;BME280;36839;51.946;21.002;2023-09-19T00:10:54;99535.40;;;16.02;100.00
50867;BME280;36839;51.946;21.002;2023-09-19T00:13:20;99535.40;;;16.00;100.00
50867;BME280;36839;51.946;21.002;2023-09-19T00:15:48;99529.50;;;15.98;100.00
50867;BME280;36839;51.946;21.002;2023-09-19T00:18:18;99530.75;;;15.95;100.00
50867;BME280;36839;51.946;21.002;2023-09-19T00:20:47;99536.32;;;15.94;100.00
50867;BME280;36839;51.946;21.002;2023-09-19T00:23:17;99533.73;;;15.93;100.00
50867;BME280;36839;51.946;21.002;2023-09-19T00:25:48;99527.14;;;15.95;100.00
50867;BME280;36839;51.946;21.002;2023-09-19T00:28:16;99524.68;;;15.97;100.00
50867;BME280;36839;51.946;21.002;2023-09-19T00:30:45;99522.55;;;15.99;100.00
50867;BME280;36839;51.946;21.002;2023-09-19T00:33:15;99532.73;;;16.02;100.00
50867;BME280;36839;51.946;21.002;2023-09-19T00:35:49;99534.58;;;16.06;100.00
50867;BME280;36839;51.946;21.002;2023-09-19T00:38:15;99530.48;;;16.08;100.00
50867;BME280;36839;51.946;21.002;2023-09-19T00:40:46;99530.81;;;16.10;100.00
50867;BME280;36839;51.946;21.002;2023-09-19T00:43:14;99527.09;;;16.12;100.00
50867;BME280;36839;51.946;21.002;2023-09-19T00:45:45;99522.73;;;16.14;100.00
50867;BME280;36839;51.946;21.002;2023-09-19T00:48:13;99522.86;;;16.17;100.00
50867;BME280;36839;51.946;21.002;2023-09-19T00:50:42;99520.21;;;16.20;100.00
50867;BME280;36839;51.946;21.002;2023-09-19T00:53:15;99519.77;;;16.22;100.00
50867;BME280;36839;51.946;21.002;2023-09-19T00:55:45;99517.23;;;16.24;100.00
50867;BME280;36839;51.946;21.002;2023-09-19T00:58:11;99516.48;;;16.25;100.00
50867;BME280;36839;51.946;21.002;2023-09-19T01:00:40;99519.64;;;16.26;100.00
50867;BME280;36839;51.946;21.002;2023-09-19T01:03:10;99517.63;;;16.27;100.00
50867;BME280;36839;51.946;21.002;2023-09-19T01:05:40;99514.17;;;16.30;100.00
50867;BME280;36839;51.946;21.002;2023-09-19T01:08:06;99509.56;;;16.32;100.00
50867;BME280;36839;51.946;21.002;2023-09-19T01:10:33;99506.61;;;16.33;100.00
50867;BME280;36839;51.946;21.002;2023-09-19T01:13:23;99501.36;;;16.33;100.00
50867;BME280;36839;51.946;21.002;2023-09-19T01:15:59;99505.16;;;16.33;100.00
50867;BME280;36839;51.946;21.002;2023-09-19T01:24:53;99481.53;;;16.27;100.00
50867;BME280;36839;51.946;21.002;2023-09-19T01:29:48;99483.08;;;16.21;100.00
50867;BME280;36839;51.946;21.002;2023-09-19T01:32:19;99480.93;;;16.20;100.00
50867;BME280;36839;51.946;21.002;2023-09-19T01:34:56;99482.20;;;16.20;100.00
50867;BME280;36839;51.946;21.002;2023-09-19T01:37:25;99485.31;;;16.20;100.00
50867;BME280;36839;51.946;21.002;2023-09-19T01:39:56;99478.75;;;16.20;100.00
50867;BME280;36839;51.946;21.002;2023-09-19T01:42:42;99477.02;;;16.20;100.00
50867;BME280;36839;51.946;21.002;2023-09-19T01:48:05;99473.19;;;16.23;100.00
50867;BME280;36839;51.946;21.002;2023-09-19T01:50:47;99471.84;;;16.25;100.00
50867;BME280;36839;51.946;21.002;2023-09-19T01:53:36;99464.42;;;16.27;100.00
50867;BME280;36839;51.946;21.002;2023-09-19T01:56:19;99463.17;;;16.29;100.00
50867;BME280;36839;51.946;21.002;2023-09-19T01:58:56;99464.52;;;16.32;100.00
50867;BME280;36839;51.946;21.002;2023-09-19T02:01:28;99462.48;;;16.35;100.00
50867;BME280;36839;51.946;21.002;2023-09-19T02:03:55;99460.14;;;16.38;100.00
50867;BME280;36839;51.946;21.002;2023-09-19T02:06:22;99460.55;;;16.38;100.00
50867;BME280;36839;51.946;21.002;2023-09-19T02:08:50;99454.27;;;16.38;100.00
50867;BME280;36839;51.946;21.002;2023-09-19T02:11:16;99447.80;;;16.38;100.00
50867;BME280;36839;51.946;21.002;2023-09-19T02:13:44;99446.89;;;16.37;100.00
50867;BME280;36839;51.946;21.002;2023-09-19T02:16:11;99452.17;;;16.36;100.00
50867;BME280;36839;51.946;21.002;2023-09-19T02:18:42;99454.44;;;16.35;100.00
50867;BME280;36839;51.946;21.002;2023-09-19T02:21:08;99456.44;;;16.33;100.00
50867;BME280;36839;51.946;21.002;2023-09-19T02:23:41;99452.84;;;16.31;100.00
50867;BME280;36839;51.946;21.002;2023-09-19T02:26:09;99455.39;;;16.31;100.00
50867;BME280;36839;51.946;21.002;2023-09-19T02:28:40;99454.58;;;16.32;100.00
50867;BME280;36839;51.946;21.002;2023-09-19T02:31:06;99454.77;;;16.33;100.00
50867;BME280;36839;51.946;21.002;2023-09-19T02:33:32;99458.20;;;16.35;100.00
50867;BME280;36839;51.946;21.002;2023-09-19T02:35:59;99452.17;;;16.37;100.00
50867;BME280;36839;51.946;21.002;2023-09-19T02:38:27;99445.27;;;16.38;100.00
50867;BME280;36839;51.946;21.002;2023-09-19T02:40:55;99445.17;;;16.38;100.00
50867;BME280;36839;51.946;21.002;2023-09-19T02:43:22;99441.04;;;16.39;100.00
50867;BME280;36839;51.946;21.002;2023-09-19T02:45:49;99439.27;;;16.40;100.00
50867;BME280;36839;51.946;21.002;2023-09-19T02:48:26;99434.61;;;16.41;100.00
50867;BME280;36839;51.946;21.002;2023-09-19T02:50:52;99427.98;;;16.41;100.00
50867;BME280;36839;51.946;21.002;2023-09-19T02:53:18;99424.59;;;16.40;100.00
50867;BME280;36839;51.946;21.002;2023-09-19T02:55:46;99421.04;;;16.39;100.00
50867;BME280;36839;51.946;21.002;2023-09-19T02:58:12;99425.31;;;16.37;100.00
50867;BME280;36839;51.946;21.002;2023-09-19T03:00:41;99419.16;;;16.33;100.00
50867;BME280;36839;51.946;21.002;2023-09-19T03:03:15;99415.23;;;16.28;100.00
50867;BME280;36839;51.946;21.002;2023-09-19T03:05:43;99409.41;;;16.27;100.00
50867;BME280;36839;51.946;21.002;2023-09-19T03:08:13;99410.17;;;16.24;100.00
50867;BME280;36839;51.946;21.002;2023-09-19T03:10:47;99408.98;;;16.22;100.00
50867;BME280;36839;51.946;21.002;2023-09-19T03:13:17;99403.13;;;16.20;100.00
50867;BME280;36839;51.946;21.002;2023-09-19T03:15:46;99398.17;;;16.18;100.00
50867;BME280;36839;51.946;21.002;2023-09-19T03:18:13;99392.77;;;16.16;100.00
50867;BME280;36839;51.946;21.002;2023-09-19T03:20:42;99390.91;;;16.14;100.00
50867;BME280;36839;51.946;21.002;2023-09-19T03:23:07;99389.00;;;16.11;100.00
50867;BME280;36839;51.946;21.002;2023-09-19T03:25:36;99388.70;;;16.06;100.00
50867;BME280;36839;51.946;21.002;2023-09-19T03:28:04;99399.48;;;16.02;100.00
50867;BME280;36839;51.946;21.002;2023-09-19T03:30:35;99399.80;;;15.98;100.00
50867;BME280;36839;51.946;21.002;2023-09-19T03:33:01;99397.58;;;15.96;100.00
50867;BME280;36839;51.946;21.002;2023-09-19T03:35:27;99396.80;;;15.93;100.00
50867;BME280;36839;51.946;21.002;2023-09-19T03:37:56;99400.41;;;15.89;100.00
50867;BME280;36839;51.946;21.002;2023-09-19T03:40:23;99398.98;;;15.84;100.00
50867;BME280;36839;51.946;21.002;2023-09-19T03:42:51;99401.55;;;15.82;100.00
50867;BME280;36839;51.946;21.002;2023-09-19T03:45:18;99398.56;;;15.79;100.00
50867;BME280;36839;51.946;21.002;2023-09-19T03:47:47;99400.63;;;15.77;100.00
50867;BME280;36839;51.946;21.002;2023-09-19T03:50:13;99398.15;;;15.77;100.00
50867;BME280;36839;51.946;21.002;2023-09-19T03:52:46;99395.66;;;15.76;100.00
50867;BME280;36839;51.946;21.002;2023-09-19T03:55:14;99387.80;;;15.77;100.00
50867;BME280;36839;51.946;21.002;2023-09-19T03:57:39;99383.24;;;15.76;100.00
50867;BME280;36839;51.946;21.002;2023-09-19T04:00:09;99378.36;;;15.76;100.00
50867;BME280;36839;51.946;21.002;2023-09-19T04:02:38;99381.15;;;15.75;100.00
50867;BME280;36839;51.946;21.002;2023-09-19T04:05:05;99385.29;;;15.75;100.00
50867;BME280;36839;51.946;21.002;2023-09-19T04:07:40;99386.27;;;15.76;100.00
50867;BME280;36839;51.946;21.002;2023-09-19T04:10:24;99385.20;;;15.76;100.00
50867;BME280;36839;51.946;21.002;2023-09-19T04:12:54;99380.55;;;15.75;100.00
50867;BME280;36839;51.946;21.002;2023-09-19T04:15:24;99376.14;;;15.75;100.00
50867;BME280;36839;51.946;21.002;2023-09-19T04:17:52;99378.52;;;15.79;100.00
50867;BME280;36839;51.946;21.002;2023-09-19T04:20:19;99372.27;;;15.81;100.00
50867;BME280;36839;51.946;21.002;2023-09-19T04:22:46;99369.77;;;15.83;100.00
50867;BME280;36839;51.946;21.002;2023-09-19T04:25:16;99370.88;;;15.85;100.00
50867;BME280;36839;51.946;21.002;2023-09-19T04:27:44;99361.23;;;15.87;100.00
50867;BME280;36839;51.946;21.002;2023-09-19T04:30:11;99351.80;;;15.89;100.00
50867;BME280;36839;51.946;21.002;2023-09-19T04:32:38;99346.39;;;15.89;100.00
50867;BME280;36839;51.946;21.002;2023-09-19T04:35:09;99346.93;;;15.92;100.00
50867;BME280;36839;51.946;21.002;2023-09-19T04:37:39;99342.57;;;15.96;100.00
50867;BME280;36839;51.946;21.002;2023-09-19T04:40:07;99343.89;;;15.99;100.00
50867;BME280;36839;51.946;21.002;2023-09-19T04:42:39;99352.96;;;16.02;100.00
50867;BME280;36839;51.946;21.002;2023-09-19T04:45:08;99354.06;;;16.06;100.00
50867;BME280;36839;51.946;21.002;2023-09-19T04:47:38;99346.76;;;16.09;100.00
50867;BME280;36839;51.946;21.002;2023-09-19T04:50:12;99346.34;;;16.14;100.00
50867;BME280;36839;51.946;21.002;2023-09-19T04:52:40;99341.91;;;16.18;100.00
50867;BME280;36839;51.946;21.002;2023-09-19T04:55:15;99337.39;;;16.22;100.00
50867;BME280;36839;51.946;21.002;2023-09-19T04:57:47;99335.44;;;16.26;100.00
50867;BME280;36839;51.946;21.002;2023-09-19T05:00:18;99336.19;;;16.31;100.00
50867;BME280;36839;51.946;21.002;2023-09-19T05:02:54;99336.77;;;16.35;100.00
50867;BME280;36839;51.946;21.002;2023-09-19T05:05:24;99338.70;;;16.41;100.00
50867;BME280;36839;51.946;21.002;2023-09-19T05:07:54;99338.45;;;16.46;100.00
50867;BME280;36839;51.946;21.002;2023-09-19T05:10:23;99343.30;;;16.51;100.00
50867;BME280;36839;51.946;21.002;2023-09-19T05:12:55;99347.45;;;16.55;100.00
50867;BME280;36839;51.946;21.002;2023-09-19T05:15:21;99345.16;;;16.61;100.00
50867;BME280;36839;51.946;21.002;2023-09-19T05:17:48;99345.26;;;16.65;100.00
50867;BME280;36839;51.946;21.002;2023-09-19T05:20:23;99344.30;;;16.71;100.00
50867;BME280;36839;51.946;21.002;2023-09-19T05:23:05;99344.67;;;16.78;100.00
50867;BME280;36839;51.946;21.002;2023-09-19T05:25:37;99341.33;;;16.86;100.00
50867;BME280;36839;51.946;21.002;2023-09-19T05:28:08;99338.55;;;16.92;100.00
50867;BME280;36839;51.946;21.002;2023-09-19T05:30:35;99342.08;;;16.98;100.00
50867;BME280;36839;51.946;21.002;2023-09-19T05:33:02;99343.04;;;17.04;100.00
50867;BME280;36839;51.946;21.002;2023-09-19T05:35:32;99338.86;;;17.08;100.00
50867;BME280;36839;51.946;21.002;2023-09-19T05:38:01;99334.06;;;17.12;100.00
50867;BME280;36839;51.946;21.002;2023-09-19T05:40:27;99336.60;;;17.18;100.00
50867;BME280;36839;51.946;21.002;2023-09-19T05:42:52;99330.70;;;17.23;100.00
50867;BME280;36839;51.946;21.002;2023-09-19T05:45:19;99333.89;;;17.29;100.00
50867;BME280;36839;51.946;21.002;2023-09-19T05:47:50;99327.16;;;17.34;100.00
50867;BME280;36839;51.946;21.002;2023-09-19T05:50:17;99317.33;;;17.40;100.00
50867;BME280;36839;51.946;21.002;2023-09-19T05:52:58;99313.17;;;17.50;100.00
50867;BME280;36839;51.946;21.002;2023-09-19T05:55:26;99315.44;;;17.58;100.00
50867;BME280;36839;51.946;21.002;2023-09-19T05:57:57;99314.27;;;17.69;100.00
50867;BME280;36839;51.946;21.002;2023-09-19T06:00:25;99314.75;;;17.77;100.00
50867;BME280;36839;51.946;21.002;2023-09-19T06:02:54;99316.66;;;17.85;100.00
50867;BME280;36839;51.946;21.002;2023-09-19T06:05:24;99314.87;;;17.92;100.00
50867;BME280;36839;51.946;21.002;2023-09-19T06:07:52;99315.38;;;17.97;100.00
50867;BME280;36839;51.946;21.002;2023-09-19T06:10:20;99309.31;;;18.04;100.00
50867;BME280;36839;51.946;21.002;2023-09-19T06:12:47;99310.57;;;18.08;100.00
50867;BME280;36839;51.946;21.002;2023-09-19T06:15:14;99317.50;;;18.14;100.00
50867;BME280;36839;51.946;21.002;2023-09-19T06:17:42;99318.38;;;18.18;100.00
50867;BME280;36839;51.946;21.002;2023-09-19T06:20:09;99321.83;;;18.23;100.00
50867;BME280;36839;51.946;21.002;2023-09-19T06:22:48;99325.13;;;18.26;100.00
50867;BME280;36839;51.946;21.002;2023-09-19T06:25:16;99325.71;;;18.29;100.00
50867;BME280;36839;51.946;21.002;2023-09-19T06:27:46;99327.52;;;18.30;100.00
50867;BME280;36839;51.946;21.002;2023-09-19T06:30:15;99326.27;;;18.28;100.00
50867;BME280;36839;51.946;21.002;2023-09-19T06:32:46;99333.15;;;18.29;100.00
50867;BME280;36839;51.946;21.002;2023-09-19T06:35:13;99333.83;;;18.28;100.00
50867;BME280;36839;51.946;21.002;2023-09-19T06:37:40;99336.37;;;18.27;100.00
50867;BME280;36839;51.946;21.002;2023-09-19T06:40:08;99335.41;;;18.27;100.00
50867;BME280;36839;51.946;21.002;2023-09-19T06:42:42;99332.61;;;18.31;100.00
50867;BME280;36839;51.946;21.002;2023-09-19T06:45:17;99337.14;;;18.31;100.00
50867;BME280;36839;51.946;21.002;2023-09-19T06:47:48;99346.06;;;18.33;100.00
50867;BME280;36839;51.946;21.002;2023-09-19T06:50:19;99354.45;;;18.35;100.00
50867;BME280;36839;51.946;21.002;2023-09-19T06:52:48;99349.11;;;18.37;100.00
50867;BME280;36839;51.946;21.002;2023-09-19T06:55:18;99351.58;;;18.44;100.00
50867;BME280;36839;51.946;21.002;2023-09-19T06:57:49;99355.52;;;18.50;100.00
50867;BME280;36839;51.946;21.002;2023-09-19T07:00:16;99355.08;;;18.57;100.00
50867;BME280;36839;51.946;21.002;2023-09-19T07:03:05;99361.13;;;18.69;100.00
50867;BME280;36839;51.946;21.002;2023-09-19T07:05:37;99372.08;;;18.82;100.00
50867;BME280;36839;51.946;21.002;2023-09-19T07:08:09;99371.38;;;18.87;100.00
50867;BME280;36839;51.946;21.002;2023-09-19T07:10:41;99369.07;;;18.92;100.00
50867;BME280;36839;51.946;21.002;2023-09-19T07:13:08;99364.98;;;18.98;100.00
50867;BME280;36839;51.946;21.002;2023-09-19T07:15:44;99367.91;;;19.04;100.00
50867;BME280;36839;51.946;21.002;2023-09-19T07:18:16;99365.65;;;19.08;100.00
50867;BME280;36839;51.946;21.002;2023-09-19T07:20:46;99366.32;;;19.12;100.00
50867;BME280;36839;51.946;21.002;2023-09-19T07:23:19;99371.73;;;19.14;100.00
50867;BME280;36839;51.946;21.002;2023-09-19T07:25:48;99374.16;;;19.17;100.00
50867;BME280;36839;51.946;21.002;2023-09-19T07:28:17;99377.20;;;19.22;100.00
50867;BME280;36839;51.946;21.002;2023-09-19T07:30:45;99382.65;;;19.27;100.00
50867;BME280;36839;51.946;21.002;2023-09-19T07:33:11;99380.84;;;19.32;100.00
50867;BME280;36839;51.946;21.002;2023-09-19T07:35:40;99381.80;;;19.37;100.00
50867;BME280;36839;51.946;21.002;2023-09-19T07:38:13;99380.41;;;19.41;100.00
50867;BME280;36839;51.946;21.002;2023-09-19T07:40:42;99374.11;;;19.47;100.00
50867;BME280;36839;51.946;21.002;2023-09-19T07:43:07;99372.15;;;19.50;100.00
50867;BME280;36839;51.946;21.002;2023-09-19T07:45:35;99374.23;;;19.55;100.00
50867;BME280;36839;51.946;21.002;2023-09-19T07:48:03;99372.70;;;19.59;100.00
50867;BME280;36839;51.946;21.002;2023-09-19T07:50:33;99378.29;;;19.66;100.00
50867;BME280;36839;51.946;21.002;2023-09-19T07:53:03;99380.55;;;19.72;100.00
50867;BME280;36839;51.946;21.002;2023-09-19T07:55:30;99383.09;;;19.78;100.00
50867;BME280;36839;51.946;21.002;2023-09-19T07:57:59;99384.05;;;19.86;100.00
50867;BME280;36839;51.946;21.002;2023-09-19T08:00:25;99384.78;;;19.91;100.00
50867;BME280;36839;51.946;21.002;2023-09-19T08:02:51;99385.49;;;19.94;100.00
50867;BME280;36839;51.946;21.002;2023-09-19T08:05:18;99385.38;;;19.95;100.00
50867;BME280;36839;51.946;21.002;2023-09-19T08:07:45;99385.33;;;20.01;100.00
50867;BME280;36839;51.946;21.002;2023-09-19T08:10:18;99379.84;;;20.05;100.00
50867;BME280;36839;51.946;21.002;2023-09-19T08:12:48;99391.06;;;20.09;100.00
50867;BME280;36839;51.946;21.002;2023-09-19T08:15:18;99387.89;;;20.12;100.00
50867;BME280;36839;51.946;21.002;2023-09-19T08:17:48;99391.01;;;20.14;100.00
50867;BME280;36839;51.946;21.002;2023-09-19T08:20:16;99387.79;;;20.14;100.00
50867;BME280;36839;51.946;21.002;2023-09-19T08:22:47;99385.55;;;20.17;100.00
50867;BME280;36839;51.946;21.002;2023-09-19T08:25:16;99384.23;;;20.21;100.00
50867;BME280;36839;51.946;21.002;2023-09-19T08:27:49;99388.05;;;20.22;100.00
50867;BME280;36839;51.946;21.002;2023-09-19T08:30:20;99388.08;;;20.26;100.00
50867;BME280;36839;51.946;21.002;2023-09-19T08:32:50;99386.09;;;20.33;100.00
50867;BME280;36839;51.946;21.002;2023-09-19T08:35:18;99389.52;;;20.37;100.00
50867;BME280;36839;51.946;21.002;2023-09-19T08:37:49;99390.67;;;20.41;100.00
50867;BME280;36839;51.946;21.002;2023-09-19T08:40:17;99387.73;;;20.39;100.00
50867;BME280;36839;51.946;21.002;2023-09-19T08:42:53;99391.84;;;20.42;100.00
50867;BME280;36839;51.946;21.002;2023-09-19T08:45:23;99383.94;;;20.46;100.00
50867;BME280;36839;51.946;21.002;2023-09-19T08:50:41;99380.86;;;20.61;100.00
50867;BME280;36839;51.946;21.002;2023-09-19T08:56:17;99389.08;;;20.89;100.00
50867;BME280;36839;51.946;21.002;2023-09-19T08:58:57;99396.20;;;20.92;100.00
50867;BME280;36839;51.946;21.002;2023-09-19T09:01:27;99392.80;;;20.81;100.00
50867;BME280;36839;51.946;21.002;2023-09-19T09:04:01;99391.27;;;20.75;100.00
50867;BME280;36839;51.946;21.002;2023-09-19T09:06:41;99391.66;;;20.83;100.00
50867;BME280;36839;51.946;21.002;2023-09-19T09:09:10;99395.85;;;20.87;100.00
50867;BME280;36839;51.946;21.002;2023-09-19T09:11:40;99402.09;;;20.86;100.00
50867;BME280;36839;51.946;21.002;2023-09-19T09:14:09;99410.32;;;20.82;100.00
50867;BME280;36839;51.946;21.002;2023-09-19T09:16:37;99419.34;;;20.75;100.00
50867;BME280;36839;51.946;21.002;2023-09-19T09:19:05;99431.06;;;20.70;100.00
50867;BME280;36839;51.946;21.002;2023-09-19T09:21:35;99442.16;;;20.63;100.00
50867;BME280;36839;51.946;21.002;2023-09-19T09:24:27;99443.16;;;20.56;100.00
50867;BME280;36839;51.946;21.002;2023-09-19T09:26:55;99448.87;;;20.41;100.00
50867;BME280;36839;51.946;21.002;2023-09-19T09:29:42;99453.83;;;20.31;100.00
50867;BME280;36839;51.946;21.002;2023-09-19T09:32:28;99456.70;;;20.20;100.00
50867;BME280;36839;51.946;21.002;2023-09-19T09:34:59;99464.73;;;20.05;100.00
50867;BME280;36839;51.946;21.002;2023-09-19T09:37:26;99471.61;;;19.95;100.00
50867;BME280;36839;51.946;21.002;2023-09-19T09:40:03;99474.25;;;19.77;100.00
50867;BME280;36839;51.946;21.002;2023-09-19T09:42:49;99474.02;;;19.50;100.00
50867;BME280;36839;51.946;21.002;2023-09-19T09:45:22;99484.89;;;19.23;100.00
50867;BME280;36839;51.946;21.002;2023-09-19T09:48:03;99488.30;;;18.93;100.00
50867;BME280;36839;51.946;21.002;2023-09-19T09:50:35;99495.32;;;18.69;100.00
50867;BME280;36839;51.946;21.002;2023-09-19T09:53:40;99499.97;;;18.53;100.00
50867;BME280;36839;51.946;21.002;2023-09-19T09:56:08;99505.95;;;18.42;100.00
50867;BME280;36839;51.946;21.002;2023-09-19T09:58:37;99508.93;;;18.33;100.00
50867;BME280;36839;51.946;21.002;2023-09-19T10:01:06;99517.47;;;18.28;100.00
50867;BME280;36839;51.946;21.002;2023-09-19T10:03:39;99528.65;;;18.29;100.00
50867;BME280;36839;51.946;21.002;2023-09-19T10:06:13;99531.13;;;18.30;100.00
50867;BME280;36839;51.946;21.002;2023-09-19T10:09:06;99530.42;;;18.31;100.00
50867;BME280;36839;51.946;21.002;2023-09-19T10:15:48;99535.60;;;18.29;100.00
50867;BME280;36839;51.946;21.002;2023-09-19T10:18:20;99535.92;;;18.31;100.00
50867;BME280;36839;51.946;21.002;2023-09-19T10:20:47;99530.27;;;18.33;100.00
50867;BME280;36839;51.946;21.002;2023-09-19T10:23:17;99532.37;;;18.32;100.00
50867;BME280;36839;51.946;21.002;2023-09-19T10:25:49;99525.05;;;18.33;100.00
50867;BME280;36839;51.946;21.002;2023-09-19T10:28:21;99530.23;;;18.32;100.00
50867;BME280;36839;51.946;21.002;2023-09-19T10:30:57;99530.08;;;18.33;100.00
50867;BME280;36839;51.946;21.002;2023-09-19T10:33:25;99526.58;;;18.33;100.00
50867;BME280;36839;51.946;21.002;2023-09-19T10:35:58;99529.27;;;18.32;100.00
50867;BME280;36839;51.946;21.002;2023-09-19T10:38:27;99529.20;;;18.35;100.00
50867;BME280;36839;51.946;21.002;2023-09-19T10:41:01;99524.59;;;18.39;100.00
50867;BME280;36839;51.946;21.002;2023-09-19T10:43:30;99529.98;;;18.46;100.00
50867;BME280;36839;51.946;21.002;2023-09-19T10:46:09;99529.84;;;18.52;100.00
50867;BME280;36839;51.946;21.002;2023-09-19T10:48:39;99526.95;;;18.58;100.00
50867;BME280;36839;51.946;21.002;2023-09-19T10:51:15;99535.08;;;18.62;100.00
50867;BME280;36839;51.946;21.002;2023-09-19T10:53:52;99533.58;;;18.65;100.00
50867;BME280;36839;51.946;21.002;2023-09-19T10:56:40;99534.73;;;18.67;100.00
50867;BME280;36839;51.946;21.002;2023-09-19T10:59:17;99533.44;;;18.72;100.00
50867;BME280;36839;51.946;21.002;2023-09-19T11:01:52;99533.45;;;18.77;100.00
50867;BME280;36839;51.946;21.002;2023-09-19T11:04:35;99538.19;;;18.80;100.00
50867;BME280;36839;51.946;21.002;2023-09-19T11:07:09;99541.76;;;18.79;100.00
50867;BME280;36839;51.946;21.002;2023-09-19T11:09:53;99538.85;;;18.80;100.00
50867;BME280;36839;51.946;21.002;2023-09-19T11:14:55;99537.61;;;18.81;100.00
50867;BME280;36839;51.946;21.002;2023-09-19T11:30:48;99547.17;;;18.83;100.00
50867;BME280;36839;51.946;21.002;2023-09-19T11:35:59;99544.76;;;18.85;100.00
50867;BME280;36839;51.946;21.002;2023-09-19T11:46:27;99552.67;;;18.95;100.00
50867;BME280;36839;51.946;21.002;2023-09-19T11:49:08;99554.81;;;18.95;100.00
50867;BME280;36839;51.946;21.002;2023-09-19T11:51:43;99556.07;;;18.96;100.00
50867;BME280;36839;51.946;21.002;2023-09-19T11:54:14;99548.40;;;18.98;100.00
50867;BME280;36839;51.946;21.002;2023-09-19T11:56:49;99549.40;;;19.04;100.00
50867;BME280;36839;51.946;21.002;2023-09-19T11:59:26;99548.82;;;19.07;100.00
50867;BME280;36839;51.946;21.002;2023-09-19T12:02:01;99550.98;;;19.05;100.00
50867;BME280;36839;51.946;21.002;2023-09-19T12:04:39;99554.73;;;19.05;100.00
50867;BME280;36839;51.946;21.002;2023-09-19T12:07:15;99555.97;;;19.02;100.00
50867;BME280;36839;51.946;21.002;2023-09-19T12:09:45;99560.42;;;19.05;100.00
50867;BME280;36839;51.946;21.002;2023-09-19T12:12:23;99561.60;;;19.07;100.00
50867;BME280;36839;51.946;21.002;2023-09-19T12:14:54;99563.11;;;19.07;100.00
50867;BME280;36839;51.946;21.002;2023-09-19T12:17:21;99566.69;;;19.06;100.00
50867;BME280;36839;51.946;21.002;2023-09-19T12:19:51;99578.34;;;19.05;100.00
50867;BME280;36839;51.946;21.002;2023-09-19T12:22:23;99581.64;;;19.02;100.00
50867;BME280;36839;51.946;21.002;2023-09-19T12:24:51;99584.73;;;19.03;100.00
50867;BME280;36839;51.946;21.002;2023-09-19T12:27:20;99586.73;;;19.04;100.00
50867;BME280;36839;51.946;21.002;2023-09-19T12:29:51;99590.66;;;19.00;100.00
50867;BME280;36839;51.946;21.002;2023-09-19T12:32:35;99593.54;;;18.99;100.00
50867;BME280;36839;51.946;21.002;2023-09-19T12:35:01;99593.65;;;19.00;100.00
50867;BME280;36839;51.946;21.002;2023-09-19T12:37:34;99586.75;;;19.00;100.00
50867;BME280;36839;51.946;21.002;2023-09-19T12:40:08;99587.89;;;18.98;100.00
50867;BME280;36839;51.946;21.002;2023-09-19T12:42:46;99589.12;;;18.95;100.00
50867;BME280;36839;51.946;21.002;2023-09-19T12:45:16;99585.86;;;18.94;100.00
50867;BME280;36839;51.946;21.002;2023-09-19T12:51:09;99583.69;;;18.93;100.00
50867;BME280;36839;51.946;21.002;2023-09-19T12:53:45;99581.94;;;18.95;100.00
50867;BME280;36839;51.946;21.002;2023-09-19T12:56:15;99581.98;;;18.98;100.00
50867;BME280;36839;51.946;21.002;2023-09-19T12:58:54;99576.77;;;19.02;100.00
50867;BME280;36839;51.946;21.002;2023-09-19T13:01:21;99577.54;;;19.05;100.00
50867;BME280;36839;51.946;21.002;2023-09-19T13:04:16;99576.34;;;19.10;100.00
50867;BME280;36839;51.946;21.002;2023-09-19T13:06:47;99580.41;;;19.12;100.00
50867;BME280;36839;51.946;21.002;2023-09-19T13:09:19;99577.48;;;19.14;100.00
50867;BME280;36839;51.946;21.002;2023-09-19T13:11:46;99580.05;;;19.19;100.00
50867;BME280;36839;51.946;21.002;2023-09-19T13:14:25;99576.77;;;19.26;100.00
50867;BME280;36839;51.946;21.002;2023-09-19T13:17:09;99576.92;;;19.32;100.00
50867;BME280;36839;51.946;21.002;2023-09-19T13:19:49;99575.64;;;19.39;100.00
50867;BME280;36839;51.946;21.002;2023-09-19T13:22:43;99575.31;;;19.43;100.00
50867;BME280;36839;51.946;21.002;2023-09-19T13:25:28;99573.73;;;19.46;100.00
50867;BME280;36839;51.946;21.002;2023-09-19T13:27:58;99573.98;;;19.49;100.00
50867;BME280;36839;51.946;21.002;2023-09-19T13:30:28;99577.33;;;19.50;100.00
50867;BME280;36839;51.946;21.002;2023-09-19T13:33:05;99582.42;;;19.47;100.00
50867;BME280;36839;51.946;21.002;2023-09-19T13:35:38;99583.00;;;19.48;100.00
50867;BME280;36839;51.946;21.002;2023-09-19T13:38:08;99582.30;;;19.49;100.00
50867;BME280;36839;51.946;21.002;2023-09-19T13:40:41;99590.09;;;19.50;100.00
50867;BME280;36839;51.946;21.002;2023-09-19T13:43:08;99594.34;;;19.55;100.00
50867;BME280;36839;51.946;21.002;2023-09-19T13:45:34;99592.05;;;19.61;100.00
50867;BME280;36839;51.946;21.002;2023-09-19T13:48:00;99593.69;;;19.66;100.00
50867;BME280;36839;51.946;21.002;2023-09-19T13:50:28;99594.71;;;19.68;100.00
50867;BME280;36839;51.946;21.002;2023-09-19T13:52:56;99592.73;;;19.68;100.00